Time;durP1;ratioP1;P1;durP2;ratioP2;P2;SDS_P1;SDS_P2;PMS_P1;PMS_P2;Temp;Humidity;BMP_temperature;BMP_pressure;BME280_temperature;BME280_humidity;BME280_pressure;Samples;Min_cycle;Max_cycle;Signal;HPM_P1;HPM_P2
2023/08/06 00:01:00;;;;;;;9.98;4.07;;;;;;;17.74;75.13;99748.31;4127038;28;20046;-59
2023/08/06 00:03:02;;;;;;;;;;;;;;;17.65;75.24;99748.53;4130212;28;20050;-59
2023/08/06 00:05:06;;;;;;;6.22;2.90;;;;;;;17.65;75.65;99742.41;4126289;28;19976;-59
2023/08/06 00:07:09;;;;;;;12.27;4.07;;;;;;;17.72;74.97;99744.84;4115726;28;20170;-59
2023/08/06 00:09:13;;;;;;;6.50;3.28;;;;;;;17.67;75.31;99735.34;4128536;28;20038;-59
2023/08/06 00:11:16;;;;;;;6.53;2.97;;;;;;;17.65;75.23;99727.50;4128857;28;20485;-58
2023/08/06 00:13:19;;;;;;;4.93;3.28;;;;;;;17.71;75.55;99722.09;4129032;28;20038;-59
2023/08/06 00:15:21;;;;;;;8.10;3.83;;;;;;;17.69;75.44;99718.63;4111997;28;20059;-59
2023/08/06 00:17:26;;;;;;;4.13;3.10;;;;;;;17.68;75.35;99716.91;4111920;28;20078;-59
2023/08/06 00:19:29;;;;;;;7.43;4.03;;;;;;;17.71;75.22;99716.84;4128300;28;20504;-58
2023/08/06 00:21:31;;;;;;;5.75;3.47;;;;;;;17.67;75.05;99715.19;4118281;28;20406;-59
2023/08/06 00:23:33;;;;;;;7.85;3.60;;;;;;;17.70;74.64;99712.47;4129336;28;20085;-59
2023/08/06 00:25:37;;;;;;;7.95;3.25;;;;;;;17.69;74.50;99705.47;4129186;28;20038;-59
2023/08/06 00:27:39;;;;;;;6.72;3.00;;;;;;;17.68;74.62;99706.38;4128595;28;20125;-59
2023/08/06 00:29:42;;;;;;;7.25;2.80;;;;;;;17.62;74.41;99696.91;4127660;28;20564;-59
2023/08/06 00:31:45;;;;;;;6.13;3.20;;;;;;;17.63;74.27;99693.38;4114316;28;20157;-59
2023/08/06 00:33:49;;;;;;;4.65;3.05;;;;;;;17.68;73.97;99687.97;4112603;28;20031;-59
2023/08/06 00:35:52;;;;;;;5.35;2.72;;;;;;;17.64;73.41;99691.63;4115230;28;20074;-59
2023/08/06 00:37:55;;;;;;;4.93;2.60;;;;;;;17.62;73.53;99690.78;4097050;28;20074;-59
2023/08/06 00:39:58;;;;;;;5.85;3.00;;;;;;;17.67;73.35;99683.66;4095493;28;20035;-59
2023/08/06 00:42:01;;;;;;;4.88;2.70;;;;;;;17.62;73.39;99686.41;4127505;28;20042;-59
2023/08/06 00:44:05;;;;;;;8.75;3.38;;;;;;;17.71;73.11;99685.28;4113959;28;20062;-58
2023/08/06 00:46:08;;;;;;;5.70;2.83;;;;;;;17.56;72.76;99685.69;4128871;28;20085;-59
2023/08/06 00:48:12;;;;;;;5.05;3.13;;;;;;;17.57;72.85;99682.19;4099248;28;20473;-59
2023/08/06 00:50:16;;;;;;;3.33;2.45;;;;;;;17.61;72.83;99675.94;4111849;28;20035;-58
2023/08/06 00:52:19;;;;;;;5.57;2.78;;;;;;;17.48;73.38;99677.16;4123082;28;20048;-59
2023/08/06 00:54:23;;;;;;;6.22;2.72;;;;;;;17.48;73.96;99677.16;4128790;28;20034;-59
2023/08/06 00:56:26;;;;;;;3.70;2.38;;;;;;;17.50;72.79;99662.22;4111911;28;20051;-59
2023/08/06 00:58:29;;;;;;;4.72;2.90;;;;;;;17.52;72.71;99674.41;4114381;28;20496;-59
2023/08/06 01:00:31;;;;;;;3.33;2.65;;;;;;;17.52;72.90;99671.78;4117286;28;20568;-59
2023/08/06 01:02:34;;;;;;;4.20;2.15;;;;;;;17.64;72.53;99673.22;4111825;28;20091;-59
2023/08/06 01:04:37;;;;;;;4.88;3.13;;;;;;;17.61;72.41;99673.31;4110122;28;20038;-59
2023/08/06 01:06:48;;;;;;;6.40;2.90;;;;;;;17.55;72.70;99662.94;4114233;28;21802;-59
2023/08/06 01:08:59;;;;;;;3.55;2.33;;;;;;;17.59;72.15;99659.34;4108456;28;20504;-59
2023/08/06 01:11:13;;;;;;;4.65;2.65;;;;;;;17.59;72.52;99661.97;4126958;28;20093;-59
2023/08/06 01:13:27;;;;;;;6.70;2.92;;;;;;;17.58;72.70;99654.97;4111319;28;20105;-59
2023/08/06 01:15:36;;;;;;;3.67;2.10;;;;;;;17.51;72.75;99650.78;4123666;28;20492;-59
2023/08/06 01:17:39;;;;;;;4.78;2.25;;;;;;;17.60;72.82;99645.28;4108949;28;20070;-59
2023/08/06 01:19:42;;;;;;;5.05;2.63;;;;;;;17.66;72.44;99641.63;4127147;28;20415;-59
2023/08/06 01:21:47;;;;;;;4.90;2.72;;;;;;;17.57;71.93;99645.38;4110177;28;20038;-58
2023/08/06 01:23:49;;;;;;;4.40;2.30;;;;;;;17.41;72.32;99645.78;4109938;28;20177;-59
2023/08/06 01:25:59;;;;;;;3.75;2.30;;;;;;;17.45;72.58;99641.34;4110501;28;20036;-59
2023/08/06 01:28:08;;;;;;;6.30;2.63;;;;;;;17.53;71.86;99644.59;4126996;28;20125;-59
2023/08/06 01:30:14;;;;;;;4.15;2.55;;;;;;;17.53;71.62;99638.47;4109050;28;20583;-59
2023/08/06 01:32:19;;;;;;;5.28;2.53;;;;;;;17.51;71.71;99635.00;4100728;28;20047;-59
2023/08/06 01:34:24;;;;;;;3.05;2.17;;;;;;;17.43;71.46;99640.50;4110332;28;20126;-59
2023/08/06 01:36:29;;;;;;;4.47;2.60;;;;;;;17.45;71.53;99636.94;4093588;28;20054;-59
2023/08/06 01:38:33;;;;;;;2.67;2.10;;;;;;;17.54;70.46;99634.97;4125725;28;20038;-59
2023/08/06 01:40:36;;;;;;;2.55;2.00;;;;;;;17.37;70.99;99628.38;4109330;28;20123;-59
2023/08/06 01:42:39;;;;;;;3.95;2.40;;;;;;;17.41;70.61;99624.78;4111153;28;20046;-59
2023/08/06 01:44:43;;;;;;;9.10;2.08;;;;;;;17.52;69.65;99632.38;4112114;28;20043;-59
2023/08/06 01:46:44;;;;;;;4.03;2.15;;;;;;;17.51;70.13;99622.75;4109909;28;20053;-59
2023/08/06 01:48:48;;;;;;;4.28;2.30;;;;;;;17.45;70.07;99626.41;4107460;28;20075;-58
2023/08/06 01:50:51;;;;;;;3.55;2.20;;;;;;;17.40;70.09;99632.69;4126964;28;20481;-59
2023/08/06 01:52:54;;;;;;;4.70;2.33;;;;;;;17.41;69.63;99626.53;4109381;28;20094;-58
2023/08/06 01:54:58;;;;;;;5.47;2.08;;;;;;;17.37;69.95;99628.38;4113994;28;20157;-59
2023/08/06 01:57:00;;;;;;;3.90;2.40;;;;;;;17.39;70.27;99636.22;4109099;28;20061;-59
2023/08/06 01:59:03;;;;;;;4.30;2.10;;;;;;;17.34;70.38;99643.38;4118576;28;20039;-59
2023/08/06 02:01:07;;;;;;;2.92;1.92;;;;;;;17.38;70.37;99639.78;4123095;28;20467;-59
2023/08/06 02:03:10;;;;;;;3.35;2.03;;;;;;;17.39;70.18;99642.34;4113287;28;20061;-59
2023/08/06 02:05:13;;;;;;;4.63;2.35;;;;;;;17.39;69.91;99637.09;4112047;28;20105;-59
2023/08/06 02:07:15;;;;;;;3.53;1.80;;;;;;;17.39;69.59;99638.84;4097834;28;20410;-61
2023/08/06 02:09:18;;;;;;;3.67;2.40;;;;;;;17.39;69.55;99637.09;4110511;28;20076;-59
2023/08/06 02:11:22;;;;;;;2.90;1.98;;;;;;;17.31;69.35;99638.22;4112626;28;20385;-59
2023/08/06 02:13:24;;;;;;;4.35;2.17;;;;;;;17.26;69.37;99633.09;4112617;28;20062;-59
2023/08/06 02:15:27;;;;;;;5.13;2.03;;;;;;;17.29;69.42;99635.63;4129281;28;20408;-59
2023/08/06 02:17:29;;;;;;;5.05;2.15;;;;;;;17.29;69.74;99633.00;4099207;28;20070;-58
2023/08/06 02:19:32;;;;;;;3.20;2.00;;;;;;;17.28;69.23;99641.78;4118686;28;20038;-59
2023/08/06 02:21:35;;;;;;;2.10;1.65;;;;;;;17.23;69.56;99635.75;4114436;28;20035;-59
2023/08/06 02:23:38;;;;;;;7.47;2.17;;;;;;;17.34;69.10;99628.47;4100733;28;20070;-59
2023/08/06 02:25:41;;;;;;;5.18;2.15;;;;;;;17.34;69.40;99636.34;4119061;28;20046;-59
2023/08/06 02:27:45;;;;;;;3.78;2.03;;;;;;;17.25;69.31;99626.09;4112096;28;20047;-59
2023/08/06 02:29:48;;;;;;;5.82;2.05;;;;;;;17.16;69.60;99623.72;4114078;28;20039;-59
2023/08/06 02:31:51;;;;;;;4.15;2.40;;;;;;;17.13;69.95;99614.16;4129506;28;20038;-59
2023/08/06 02:33:55;;;;;;;4.50;2.65;;;;;;;17.24;69.61;99606.84;4098431;28;20039;-59
2023/08/06 02:36:01;;;;;;;7.30;1.88;;;;;;;17.19;69.83;99607.88;4129666;28;20039;-59
2023/08/06 02:38:04;;;;;;;4.57;2.25;;;;;;;17.09;69.91;99605.47;4131028;28;20038;-59
2023/08/06 02:40:08;;;;;;;6.70;2.55;;;;;;;17.12;69.89;99598.44;4113462;28;20492;-59
2023/08/06 02:42:11;;;;;;;7.38;2.40;;;;;;;17.10;70.03;99601.09;4118347;28;20070;-59
2023/08/06 02:44:16;;;;;;;5.07;2.47;;;;;;;17.16;69.91;99603.56;4099096;28;20047;-59
2023/08/06 02:46:19;;;;;;;3.78;2.10;;;;;;;17.06;70.14;99597.69;4116926;28;20045;-59
2023/08/06 02:48:22;;;;;;;5.10;2.58;;;;;;;17.05;70.22;99600.34;4113236;28;20125;-59
2023/08/06 02:50:24;;;;;;;3.75;2.55;;;;;;;17.14;70.00;99604.50;4114853;28;20046;-59
2023/08/06 02:52:27;;;;;;;4.60;2.17;;;;;;;17.06;70.53;99607.34;4101807;28;20050;-59
2023/08/06 02:54:30;;;;;;;7.00;2.15;;;;;;;16.99;70.72;99604.00;4116827;28;20042;-60
2023/08/06 02:56:33;;;;;;;4.40;2.40;;;;;;;16.96;70.96;99595.34;4131523;28;20562;-59
2023/08/06 02:58:44;;;;;;;4.55;2.30;;;;;;;16.74;71.58;99598.47;4134589;28;20046;-59
2023/08/06 03:01:03;;;;;;;2.58;1.92;;;;;;;16.75;71.66;99603.69;4127208;28;20578;-59
2023/08/06 03:03:09;;;;;;;5.60;2.47;;;;;;;16.80;71.28;99597.47;4117360;28;20584;-59
2023/08/06 03:05:18;;;;;;;4.38;2.13;;;;;;;16.83;71.71;99600.00;4112866;28;20118;-59
2023/08/06 03:07:22;;;;;;;4.30;2.47;;;;;;;16.80;71.71;99594.84;4098063;28;20062;-59
2023/08/06 03:09:30;;;;;;;3.10;1.90;;;;;;;16.79;71.54;99593.97;4112352;28;20464;-59
2023/08/06 03:11:34;;;;;;;6.72;2.30;;;;;;;16.84;71.56;99599.97;4112386;28;20031;-59
2023/08/06 03:13:41;;;;;;;3.45;2.20;;;;;;;16.80;71.60;99589.59;4097268;28;20143;-59
2023/08/06 03:15:52;;;;;;;5.00;2.08;;;;;;;16.82;71.64;99582.53;4110596;28;20034;-59
2023/08/06 03:17:58;;;;;;;3.92;2.28;;;;;;;16.81;71.70;99586.09;4112498;28;20081;-59
2023/08/06 03:20:01;;;;;;;2.50;1.90;;;;;;;16.76;71.82;99583.53;4114682;28;20047;-59
2023/08/06 03:22:06;;;;;;;2.42;1.73;;;;;;;16.80;71.66;99579.94;4116336;28;20450;-59
2023/08/06 03:24:10;;;;;;;5.93;2.17;;;;;;;16.81;71.69;99586.94;4112723;28;20428;-60
2023/08/06 03:26:15;;;;;;;;;;;;;;;16.73;71.92;99575.75;4124482;28;20523;-59
2023/08/06 03:28:17;;;;;;;3.58;2.20;;;;;;;16.70;71.96;99584.56;4126944;28;19921;-59
2023/08/06 03:30:22;;;;;;;4.07;1.92;;;;;;;16.77;72.25;99581.81;4115695;28;20041;-59
2023/08/06 03:32:27;;;;;;;4.03;1.80;;;;;;;16.78;72.29;99575.63;4113003;28;20043;-59
2023/08/06 03:34:32;;;;;;;4.40;1.50;;;;;;;16.86;71.90;99578.94;4117150;28;20145;-59
2023/08/06 03:36:36;;;;;;;4.15;1.98;;;;;;;16.87;71.87;99573.69;4098640;28;20835;-59
2023/08/06 03:38:40;;;;;;;3.50;2.03;;;;;;;16.89;71.66;99577.13;4113290;28;20465;-59
2023/08/06 03:40:44;;;;;;;4.53;2.10;;;;;;;16.82;71.42;99569.41;4115291;28;20035;-59
2023/08/06 03:42:47;;;;;;;4.18;1.70;;;;;;;16.84;71.55;99578.13;4130807;28;20043;-59
2023/08/06 03:44:50;;;;;;;4.00;1.90;;;;;;;16.87;71.63;99575.41;4129315;28;20428;-59
2023/08/06 03:46:53;;;;;;;4.78;1.73;;;;;;;16.84;71.76;99584.22;4116917;28;20126;-59
2023/08/06 03:48:56;;;;;;;2.40;1.60;;;;;;;16.84;72.15;99575.50;4109187;28;20418;-59
2023/08/06 03:51:02;;;;;;;2.33;1.67;;;;;;;16.93;71.38;99584.00;4098649;28;20053;-59
2023/08/06 03:53:05;;;;;;;3.80;1.83;;;;;;;17.07;70.60;99578.41;4100780;28;20142;-59
2023/08/06 03:55:08;;;;;;;3.78;2.10;;;;;;;16.93;71.12;99586.63;4113653;28;20122;-59
2023/08/06 03:57:11;;;;;;;3.95;1.60;;;;;;;16.90;71.37;99583.25;4115266;28;20043;-59
2023/08/06 03:59:14;;;;;;;3.67;1.60;;;;;;;16.92;71.07;99576.16;4114972;28;20646;-59
2023/08/06 04:01:17;;;;;;;4.13;1.90;;;;;;;16.78;71.36;99580.88;4120281;28;20516;-59
2023/08/06 04:03:22;;;;;;;7.35;2.20;;;;;;;16.87;71.13;99581.56;4110426;28;20047;-59
2023/08/06 04:05:25;;;;;;;4.90;2.30;;;;;;;16.78;71.80;99586.13;4111995;28;20050;-59
2023/08/06 04:07:29;;;;;;;3.85;2.10;;;;;;;16.84;71.50;99580.75;4126609;28;20062;-59
2023/08/06 04:09:32;;;;;;;3.03;1.80;;;;;;;16.74;71.85;99580.97;4127999;28;20089;-59
2023/08/06 04:11:36;;;;;;;4.85;2.13;;;;;;;16.69;72.23;99588.09;4127686;28;20057;-58
2023/08/06 04:13:39;;;;;;;8.98;2.20;;;;;;;16.68;72.49;99586.38;4093854;28;20094;-59
2023/08/06 04:15:41;;;;;;;5.70;2.03;;;;;;;16.66;72.63;99588.19;4128936;28;20046;-60
2023/08/06 04:17:44;;;;;;;5.65;2.28;;;;;;;16.67;72.76;99584.63;4128770;28;20035;-59
2023/08/06 04:19:48;;;;;;;3.83;1.75;;;;;;;16.70;72.43;99584.56;4096213;28;20050;-59
2023/08/06 04:21:51;;;;;;;8.40;2.45;;;;;;;16.74;72.67;99580.97;4128050;28;20035;-59
2023/08/06 04:23:56;;;;;;;3.83;2.00;;;;;;;16.67;72.84;99575.91;4099254;28;20149;-59
2023/08/06 04:25:59;;;;;;;5.30;2.42;;;;;;;16.69;73.02;99577.59;4106533;28;20042;-60
2023/08/06 04:28:07;;;;;;;4.63;2.42;;;;;;;16.65;73.04;99581.22;4123109;28;20042;-59
2023/08/06 04:30:12;;;;;;;7.43;2.75;;;;;;;16.71;73.14;99580.19;4109005;28;20046;-59
2023/08/06 04:32:15;;;;;;;2.78;2.00;;;;;;;16.63;73.18;99572.53;4109666;28;20038;-59
2023/08/06 04:34:22;;;;;;;4.60;2.28;;;;;;;16.79;72.98;99572.97;4111371;28;20445;-59
2023/08/06 04:36:25;;;;;;;3.63;1.90;;;;;;;16.71;73.00;99574.94;4110995;28;20507;-59
2023/08/06 04:38:28;;;;;;;5.70;2.10;;;;;;;16.77;72.71;99569.53;4114451;28;20045;-59
2023/08/06 04:40:35;;;;;;;3.63;1.95;;;;;;;16.78;72.59;99570.38;4108858;28;20042;-59
2023/08/06 04:42:38;;;;;;;6.20;2.10;;;;;;;16.82;72.46;99574.66;4129624;28;20042;-59
2023/08/06 04:44:41;;;;;;;4.82;1.70;;;;;;;16.68;72.93;99575.88;4123563;28;20130;-59
2023/08/06 04:46:44;;;;;;;4.93;2.33;;;;;;;16.66;73.05;99575.06;4109063;28;20456;-59
2023/08/06 04:48:47;;;;;;;4.03;1.67;;;;;;;16.70;72.87;99575.84;4111463;28;20460;-59
2023/08/06 04:50:51;;;;;;;3.92;1.70;;;;;;;16.63;73.29;99577.78;4124685;28;20409;-58
2023/08/06 04:52:54;;;;;;;4.97;1.63;;;;;;;16.69;73.01;99582.84;4127369;28;20038;-59
2023/08/06 04:54:57;;;;;;;3.70;1.35;;;;;;;16.76;72.52;99578.28;4109017;28;20556;-59
2023/08/06 04:57:01;;;;;;;3.88;1.80;;;;;;;16.79;71.88;99578.22;4126938;28;20046;-59
2023/08/06 04:59:04;;;;;;;3.00;1.58;;;;;;;16.71;72.19;99570.53;4125316;28;20042;-59
2023/08/06 05:01:07;;;;;;;6.10;1.85;;;;;;;16.70;72.40;99578.47;4126491;28;20507;-59
2023/08/06 05:03:10;;;;;;;3.30;1.60;;;;;;;16.55;72.20;99591.06;4125700;28;20492;-58
2023/08/06 05:05:12;;;;;;;3.38;1.33;;;;;;;16.63;72.73;99583.03;4125649;28;20043;-59
2023/08/06 05:07:15;;;;;;;1.92;1.17;;;;;;;16.68;72.63;99585.53;4103111;28;20039;-58
2023/08/06 05:09:18;;;;;;;7.82;1.20;;;;;;;16.74;72.49;99582.75;4106964;28;20039;-59
2023/08/06 05:11:23;;;;;;;4.43;1.20;;;;;;;16.80;72.20;99585.19;4124446;28;20759;-58
2023/08/06 05:13:28;;;;;;;2.88;0.95;;;;;;;16.79;71.52;99586.09;4124387;28;20031;-59
2023/08/06 05:15:31;;;;;;;2.90;0.70;;;;;;;16.80;71.36;99584.34;4108484;28;20074;-59
2023/08/06 05:17:33;;;;;;;1.33;0.80;;;;;;;16.72;71.56;99577.53;4121878;28;20066;-59
2023/08/06 05:19:36;;;;;;;3.78;1.13;;;;;;;16.70;71.36;99579.31;4110167;28;20071;-59
2023/08/06 05:21:39;;;;;;;3.17;1.23;;;;;;;16.68;71.39;99586.38;4113324;28;20125;-59
2023/08/06 05:23:43;;;;;;;2.17;0.90;;;;;;;16.64;71.91;99583.88;4128096;28;20129;-59
2023/08/06 05:25:45;;;;;;;2.80;1.08;;;;;;;16.66;72.01;99582.94;4110743;28;20059;-59
2023/08/06 05:27:48;;;;;;;4.63;1.15;;;;;;;16.47;72.47;99582.53;4127523;28;20070;-59
2023/08/06 05:29:56;;;;;;;4.07;1.38;;;;;;;16.45;72.73;99584.31;4114747;28;20103;-59
2023/08/06 05:31:59;;;;;;;1.60;1.08;;;;;;;16.45;72.84;99584.31;4124819;28;20070;-59
2023/08/06 05:34:02;;;;;;;4.95;0.95;;;;;;;16.44;73.06;99586.97;4129037;28;20097;-60
2023/08/06 05:36:05;;;;;;;9.87;1.30;;;;;;;16.50;73.44;99579.84;4113888;28;20060;-59
2023/08/06 05:38:08;;;;;;;3.65;1.15;;;;;;;16.42;73.44;99594.03;4096417;28;20065;-59
2023/08/06 05:40:11;;;;;;;7.53;1.40;;;;;;;16.33;73.58;99584.63;4129558;28;20050;-59
2023/08/06 05:42:14;;;;;;;2.22;0.88;;;;;;;16.30;73.65;99588.16;4116717;28;20061;-58
2023/08/06 05:44:17;;;;;;;6.13;1.77;;;;;;;16.39;73.50;99589.72;4130369;28;20488;-59
2023/08/06 05:46:21;;;;;;;4.60;1.15;;;;;;;16.27;74.06;99597.88;4117131;28;20427;-59
2023/08/06 05:48:24;;;;;;;5.35;1.20;;;;;;;16.32;73.99;99596.84;4128620;28;20034;-59
2023/08/06 05:50:27;;;;;;;7.03;1.67;;;;;;;16.34;74.38;99597.69;4131502;28;20172;-59
2023/08/06 05:52:30;;;;;;;3.78;1.20;;;;;;;16.46;74.05;99598.31;4117558;28;20050;-59
2023/08/06 05:54:33;;;;;;;4.97;1.38;;;;;;;16.34;74.54;99594.19;4130766;28;20542;-59
2023/08/06 05:56:36;;;;;;;3.38;1.63;;;;;;;16.20;74.62;99600.63;4128436;28;20072;-59
2023/08/06 05:58:39;;;;;;;3.42;0.95;;;;;;;16.42;74.22;99601.91;4130647;28;20050;-59
2023/08/06 06:00:42;;;;;;;5.65;1.27;;;;;;;16.22;74.66;99604.09;4130003;28;20042;-59
2023/08/06 06:02:46;;;;;;;2.38;1.20;;;;;;;16.14;75.04;99606.00;4100123;28;20130;-59
2023/08/06 06:04:49;;;;;;;;;;;;;;;15.99;75.92;99603.72;4119272;28;20077;-59
2023/08/06 06:06:52;;;;;;;6.88;1.25;;;;;;;16.04;76.42;99615.81;4129629;28;19972;-59
2023/08/06 06:08:55;;;;;;;10.43;1.80;;;;;;;16.14;76.33;99615.66;4131872;28;20038;-59
2023/08/06 06:10:58;;;;;;;2.65;1.15;;;;;;;16.13;76.29;99611.28;4128296;28;20129;-59
2023/08/06 06:13:01;;;;;;;3.30;1.07;;;;;;;16.09;76.03;99610.50;4111916;28;20087;-59
2023/08/06 06:15:05;;;;;;;8.82;1.35;;;;;;;16.18;75.98;99617.31;4116613;28;20061;-59
2023/08/06 06:17:08;;;;;;;5.22;1.08;;;;;;;16.17;76.50;99611.19;4129672;28;20039;-59
2023/08/06 06:19:12;;;;;;;5.15;1.30;;;;;;;16.19;76.45;99619.00;4120678;28;20039;-59
2023/08/06 06:21:15;;;;;;;4.13;1.02;;;;;;;16.17;76.59;99618.19;4113408;28;20436;-59
2023/08/06 06:23:18;;;;;;;4.63;1.50;;;;;;;16.26;75.95;99619.75;4130503;28;20037;-59
2023/08/06 06:25:21;;;;;;;8.23;1.60;;;;;;;16.19;76.26;99613.78;4130112;28;20034;-59
2023/08/06 06:27:24;;;;;;;2.10;0.95;;;;;;;16.23;76.17;99620.69;4130948;28;20045;-59
2023/08/06 06:29:26;;;;;;;6.07;1.33;;;;;;;16.19;75.98;99614.66;4130623;28;20040;-60
2023/08/06 06:31:29;;;;;;;5.72;1.50;;;;;;;16.14;76.72;99613.03;4128813;28;20038;-59
2023/08/06 06:33:32;;;;;;;4.85;1.58;;;;;;;16.24;76.61;99625.03;4129325;28;20480;-58
2023/08/06 06:35:37;;;;;;;5.72;1.25;;;;;;;16.20;76.83;99620.75;4112046;28;20506;-59
2023/08/06 06:37:41;;;;;;;3.13;1.00;;;;;;;16.33;76.44;99627.44;4126613;28;20046;-59
2023/08/06 06:39:44;;;;;;;5.30;1.20;;;;;;;16.28;76.15;99625.81;4134449;28;20512;-59
2023/08/06 06:41:47;;;;;;;5.07;1.20;;;;;;;16.24;76.20;99625.03;4112141;28;20491;-60
2023/08/06 06:43:59;;;;;;;4.40;1.02;;;;;;;16.43;75.85;99616.72;4115182;28;20059;-59
2023/08/06 06:46:02;;;;;;;3.67;0.90;;;;;;;16.38;76.06;99620.34;4130185;28;20133;-59
2023/08/06 06:48:05;;;;;;;7.30;1.55;;;;;;;16.39;75.95;99627.28;4129926;28;20065;-61
2023/08/06 06:50:09;;;;;;;7.03;2.00;;;;;;;16.33;75.84;99626.59;4112291;28;20054;-59
2023/08/06 06:52:13;;;;;;;3.95;1.00;;;;;;;16.27;76.55;99632.81;4129982;28;20408;-59
2023/08/06 06:54:16;;;;;;;2.63;1.10;;;;;;;16.30;76.61;99624.88;4129950;28;20064;-59
2023/08/06 06:56:19;;;;;;;2.22;1.05;;;;;;;16.37;76.31;99629.09;4129567;28;20040;-59
2023/08/06 06:58:22;;;;;;;2.45;0.98;;;;;;;16.52;75.93;99625.25;4129698;28;20046;-59
2023/08/06 07:00:25;;;;;;;1.70;0.75;;;;;;;16.49;75.57;99613.97;4115303;28;20035;-59
2023/08/06 07:02:28;;;;;;;5.32;1.02;;;;;;;16.46;75.58;99620.16;4129667;28;20042;-59
2023/08/06 07:04:31;;;;;;;3.72;0.77;;;;;;;16.39;75.06;99627.28;4129305;28;20050;-59
2023/08/06 07:06:34;;;;;;;2.63;0.75;;;;;;;16.46;75.32;99624.53;4115993;28;20074;-59
2023/08/06 07:08:38;;;;;;;1.35;0.65;;;;;;;16.54;75.46;99617.34;4116170;28;20046;-59
2023/08/06 07:10:42;;;;;;;1.63;0.60;;;;;;;16.61;75.09;99621.53;4129558;28;20038;-59
2023/08/06 07:12:45;;;;;;;2.38;0.80;;;;;;;16.67;75.32;99616.13;4128917;28;20031;-59
2023/08/06 07:14:49;;;;;;;3.53;0.77;;;;;;;16.63;74.86;99618.88;4113409;28;20042;-59
2023/08/06 07:16:52;;;;;;;1.75;0.40;;;;;;;16.58;74.96;99619.00;4128989;28;20034;-59
2023/08/06 07:18:55;;;;;;;3.42;0.70;;;;;;;16.56;75.11;99612.94;4129091;28;20386;-59
2023/08/06 07:20:58;;;;;;;1.63;0.43;;;;;;;16.52;75.09;99611.28;4127631;28;20042;-59
2023/08/06 07:23:01;;;;;;;5.00;0.60;;;;;;;16.39;75.73;99621.19;4129503;28;20070;-58
2023/08/06 07:25:06;;;;;;;2.90;0.95;;;;;;;16.50;75.89;99620.94;4115171;28;20448;-58
2023/08/06 07:27:09;;;;;;;0.45;0.40;;;;;;;16.55;75.39;99619.91;4128785;28;20096;-59
2023/08/06 07:29:12;;;;;;;2.55;0.68;;;;;;;16.65;74.95;99612.69;4116451;28;20039;-59
2023/08/06 07:31:15;;;;;;;1.50;0.47;;;;;;;16.73;74.38;99612.50;4115957;28;20043;-59
2023/08/06 07:33:18;;;;;;;2.70;0.65;;;;;;;16.63;74.19;99624.13;4113932;28;20520;-59
2023/08/06 07:35:20;;;;;;;0.80;0.50;;;;;;;16.71;74.49;99623.03;4129229;28;20041;-59
2023/08/06 07:37:23;;;;;;;2.10;0.45;;;;;;;16.75;74.70;99618.59;4129335;28;20070;-59
2023/08/06 07:39:28;;;;;;;1.83;0.52;;;;;;;16.84;74.20;99620.13;4129574;28;20481;-59
2023/08/06 07:41:32;;;;;;;;;;;;;;;16.88;73.86;99625.28;4116390;28;20049;-58
2023/08/06 07:43:35;;;;;;;1.65;0.60;;;;;;;16.89;74.14;99627.03;4112173;28;19929;-59
2023/08/06 07:45:38;;;;;;;2.90;0.50;;;;;;;16.91;74.48;99619.09;4114413;28;20504;-60
2023/08/06 07:47:41;;;;;;;1.42;0.50;;;;;;;17.02;74.84;99617.03;4117149;28;20043;-59
2023/08/06 07:49:44;;;;;;;1.05;0.50;;;;;;;16.98;75.17;99628.56;4128105;28;20096;-60
2023/08/06 07:51:47;;;;;;;1.92;0.60;;;;;;;17.01;74.82;99620.59;4128632;28;20042;-59
2023/08/06 07:53:49;;;;;;;1.65;0.88;;;;;;;16.88;75.42;99616.53;4129852;28;20054;-59
2023/08/06 07:55:53;;;;;;;1.02;0.50;;;;;;;16.82;75.78;99617.53;4129476;28;20054;-61
2023/08/06 07:57:57;;;;;;;0.65;0.63;;;;;;;16.73;76.13;99621.25;4128230;28;20042;-59
2023/08/06 08:00:00;;;;;;;2.05;0.50;;;;;;;16.80;76.28;99621.09;4124602;28;20042;-59
2023/08/06 08:02:04;;;;;;;0.52;0.35;;;;;;;16.84;76.21;99617.50;4128885;28;20134;-59
2023/08/06 08:04:06;;;;;;;0.88;0.47;;;;;;;16.91;76.32;99624.34;4126204;28;20045;-59
2023/08/06 08:06:09;;;;;;;0.75;0.50;;;;;;;16.91;75.82;99619.97;4131700;28;20046;-60
2023/08/06 08:08:12;;;;;;;1.08;0.65;;;;;;;16.96;75.87;99614.59;4127640;28;20510;-59
2023/08/06 08:10:15;;;;;;;1.50;0.50;;;;;;;17.12;75.26;99622.06;4128564;28;20504;-60
2023/08/06 08:12:18;;;;;;;1.33;0.70;;;;;;;17.29;74.71;99606.72;4125650;28;20473;-59
2023/08/06 08:14:22;;;;;;;1.77;0.60;;;;;;;17.33;74.64;99605.72;4128289;28;20070;-60
2023/08/06 08:16:25;;;;;;;1.70;0.63;;;;;;;17.36;74.52;99603.03;4128438;28;20060;-59
2023/08/06 08:18:28;;;;;;;1.23;0.57;;;;;;;17.45;74.73;99602.75;4133476;23;20137;-64
2023/08/06 08:20:32;;;;;;;1.02;0.40;;;;;;;17.38;74.98;99610.88;4126616;28;20052;-64
2023/08/06 08:22:35;;;;;;;;;;;;;;;17.35;74.84;99608.31;4140830;28;20165;-63
2023/08/06 08:24:38;;;;;;;0.93;0.57;;;;;;;17.29;74.71;99614.59;4141652;28;19927;-64
2023/08/06 08:26:41;;;;;;;0.50;0.40;;;;;;;17.27;74.46;99606.78;4143468;28;20034;-63
2023/08/06 08:28:44;;;;;;;1.58;0.43;;;;;;;17.28;74.98;99603.22;4136420;28;20046;-64
2023/08/06 08:30:47;;;;;;;0.57;0.40;;;;;;;17.17;75.82;99601.78;4135078;28;20050;-64
2023/08/06 08:32:50;;;;;;;1.13;0.73;;;;;;;17.27;75.53;99606.78;4138618;28;20772;-64
2023/08/06 08:34:53;;;;;;;1.65;0.50;;;;;;;17.38;75.41;99605.63;4136834;28;20124;-64
2023/08/06 08:36:57;;;;;;;0.40;0.40;;;;;;;17.44;75.12;99603.66;4133048;28;20046;-64
2023/08/06 08:38:59;;;;;;;0.60;0.40;;;;;;;17.63;75.12;99597.91;4134841;28;20041;-63
2023/08/06 08:41:02;;;;;;;0.50;0.30;;;;;;;17.72;75.10;99597.63;4137286;28;20512;-63
2023/08/06 08:43:06;;;;;;;0.38;0.22;;;;;;;17.83;74.59;99593.81;4134641;28;20049;-63
2023/08/06 08:45:13;;;;;;;0.20;0.20;;;;;;;17.99;74.43;99595.13;4133449;28;20069;-64
2023/08/06 08:47:17;;;;;;;0.20;0.17;;;;;;;18.01;73.79;99602.97;4136160;28;20443;-64
2023/08/06 08:49:25;;;;;;;0.85;0.20;;;;;;;18.03;73.05;99591.47;4136311;28;20045;-64
2023/08/06 08:51:28;;;;;;;0.30;0.30;;;;;;;18.07;73.88;99590.47;4135992;28;20045;-63
2023/08/06 08:53:32;;;;;;;0.25;0.25;;;;;;;18.02;73.84;99581.00;4130814;28;20047;-63
2023/08/06 08:55:35;;;;;;;0.20;0.20;;;;;;;17.93;72.83;99588.28;4136651;28;20038;-64
2023/08/06 08:57:37;;;;;;;0.40;0.40;;;;;;;17.97;73.13;99591.66;4136623;28;20048;-64
2023/08/06 08:59:40;;;;;;;0.47;0.40;;;;;;;17.90;72.81;99590.13;4139458;28;20103;-63
2023/08/06 09:01:43;;;;;;;0.65;0.52;;;;;;;17.96;72.80;99590.81;4133534;28;20120;-64
2023/08/06 09:03:48;;;;;;;3.05;0.85;;;;;;;18.07;72.45;99582.59;4131602;28;20077;-64
2023/08/06 09:05:55;;;;;;;2.80;0.98;;;;;;;18.03;72.34;99585.38;4138565;28;20042;-64
2023/08/06 09:08:04;;;;;;;5.60;1.23;;;;;;;17.95;71.63;99590.88;4135903;28;20045;-64
2023/08/06 09:10:11;;;;;;;4.78;1.10;;;;;;;17.98;72.43;99598.66;4138107;28;20073;-64
2023/08/06 09:12:16;;;;;;;1.58;0.60;;;;;;;18.03;71.86;99591.47;4137801;28;20049;-65
2023/08/06 09:14:19;;;;;;;0.10;0.10;;;;;;;17.89;70.84;99598.91;4131897;28;20404;-63
2023/08/06 09:16:22;;;;;;;1.70;0.38;;;;;;;17.78;71.02;99594.84;4140184;28;20117;-63
2023/08/06 09:18:30;;;;;;;1.30;0.68;;;;;;;17.80;71.13;99590.38;4147101;28;20793;-62
2023/08/06 09:20:35;;;;;;;2.00;0.65;;;;;;;17.98;71.58;99593.41;4140182;28;20552;-63
2023/08/06 09:22:38;;;;;;;0.85;0.43;;;;;;;18.13;71.29;99587.66;4140111;28;20039;-64
2023/08/06 09:24:42;;;;;;;1.13;0.50;;;;;;;18.40;69.47;99587.72;4142778;28;20064;-64
2023/08/06 09:26:45;;;;;;;0.85;0.22;;;;;;;18.52;69.28;99581.19;4138018;28;20443;-64
2023/08/06 09:28:48;;;;;;;2.95;0.43;;;;;;;18.48;69.43;99582.19;4141831;28;20052;-64
2023/08/06 09:30:54;;;;;;;5.53;0.60;;;;;;;18.47;68.79;99576.06;4143106;28;20138;-63
2023/08/06 09:32:57;;;;;;;1.77;0.40;;;;;;;18.27;68.93;99581.13;4142434;28;20042;-63
2023/08/06 09:35:00;;;;;;;0.47;0.38;;;;;;;18.17;69.16;99587.59;4141910;28;20037;-64
2023/08/06 09:37:05;;;;;;;1.00;0.40;;;;;;;18.12;68.34;99593.84;4139822;28;20407;-63
2023/08/06 09:39:14;;;;;;;2.03;0.20;;;;;;;17.99;67.65;99581.97;4152361;28;20141;-63
2023/08/06 09:41:27;;;;;;;0.93;0.40;;;;;;;17.82;67.59;99589.47;4136957;28;20034;-63
2023/08/06 09:43:30;;;;;;;0.80;0.32;;;;;;;17.78;68.20;99591.31;4125664;28;20042;-64